sensor_id;sensor_type;location;lat;lon;timestamp;pressure;altitude;pressure_sealevel;temperature;humidity
57094;BME280;42970;50.996;3.706;2022-10-31T00:01:45;77141.09;;;-146.65;100.00
57094;BME280;42970;50.996;3.706;2022-10-31T00:04:11;77155.22;;;-146.65;100.00
57094;BME280;42970;50.996;3.706;2022-10-31T00:06:36;77171.38;;;-146.65;100.00
57094;BME280;42970;50.996;3.706;2022-10-31T00:09:03;77167.34;;;-146.65;100.00
57094;BME280;42970;50.996;3.706;2022-10-31T00:11:28;77179.44;;;-146.65;100.00
57094;BME280;42970;50.996;3.706;2022-10-31T00:13:54;77183.47;;;-146.65;100.00
57094;BME280;42970;50.996;3.706;2022-10-31T00:16:20;77183.47;;;-146.65;100.00
57094;BME280;42970;50.996;3.706;2022-10-31T00:18:49;77185.50;;;-146.65;100.00
57094;BME280;42970;50.996;3.706;2022-10-31T00:21:14;77193.56;;;-146.65;100.00
57094;BME280;42970;50.996;3.706;2022-10-31T00:23:40;77195.59;;;-146.65;100.00
57094;BME280;42970;50.996;3.706;2022-10-31T00:26:05;77199.63;;;-146.65;100.00
57094;BME280;42970;50.996;3.706;2022-10-31T00:28:32;77207.69;;;-146.65;100.00
57094;BME280;42970;50.996;3.706;2022-10-31T00:30:58;77209.72;;;-146.65;100.00
57094;BME280;42970;50.996;3.706;2022-10-31T00:33:23;77221.81;;;-146.65;100.00
57094;BME280;42970;50.996;3.706;2022-10-31T00:35:49;77229.91;;;-146.65;100.00
57094;BME280;42970;50.996;3.706;2022-10-31T00:38:15;77235.94;;;-146.65;100.00
57094;BME280;42970;50.996;3.706;2022-10-31T00:40:40;77233.94;;;-146.65;100.00
57094;BME280;42970;50.996;3.706;2022-10-31T00:43:06;77227.88;;;-146.65;100.00
57094;BME280;42970;50.996;3.706;2022-10-31T00:45:31;77235.94;;;-146.65;100.00
57094;BME280;42970;50.996;3.706;2022-10-31T00:47:56;77233.94;;;-146.65;100.00
57094;BME280;42970;50.996;3.706;2022-10-31T00:50:22;77242.00;;;-146.65;100.00
57094;BME280;42970;50.996;3.706;2022-10-31T00:52:47;77248.06;;;-146.65;100.00
57094;BME280;42970;50.996;3.706;2022-10-31T00:55:13;77252.09;;;-146.65;100.00
57094;BME280;42970;50.996;3.706;2022-10-31T00:57:38;77254.13;;;-146.65;100.00
57094;BME280;42970;50.996;3.706;2022-10-31T01:00:03;77262.19;;;-146.65;100.00
57094;BME280;42970;50.996;3.706;2022-10-31T01:02:29;77270.25;;;-146.65;100.00
57094;BME280;42970;50.996;3.706;2022-10-31T01:04:54;77280.34;;;-146.65;100.00
57094;BME280;42970;50.996;3.706;2022-10-31T01:07:20;77288.41;;;-146.65;100.00
57094;BME280;42970;50.996;3.706;2022-10-31T01:09:45;77292.44;;;-146.65;100.00
57094;BME280;42970;50.996;3.706;2022-10-31T01:12:10;77278.31;;;-146.65;100.00
57094;BME280;42970;50.996;3.706;2022-10-31T01:14:36;77278.31;;;-146.65;100.00
57094;BME280;42970;50.996;3.706;2022-10-31T01:17:02;77272.28;;;-146.65;100.00
57094;BME280;42970;50.996;3.706;2022-10-31T01:19:27;77272.28;;;-146.65;100.00
57094;BME280;42970;50.996;3.706;2022-10-31T01:21:55;77280.34;;;-146.65;100.00
57094;BME280;42970;50.996;3.706;2022-10-31T01:24:21;77284.38;;;-146.65;100.00
57094;BME280;42970;50.996;3.706;2022-10-31T01:26:46;77292.44;;;-146.65;100.00
57094;BME280;42970;50.996;3.706;2022-10-31T01:29:12;77300.53;;;-146.65;100.00
57094;BME280;42970;50.996;3.706;2022-10-31T01:31:38;77308.59;;;-146.65;100.00
57094;BME280;42970;50.996;3.706;2022-10-31T01:34:05;77308.59;;;-146.65;100.00
57094;BME280;42970;50.996;3.706;2022-10-31T01:36:36;77314.66;;;-146.65;100.00
57094;BME280;42970;50.996;3.706;2022-10-31T01:39:05;77324.75;;;-146.65;100.00
57094;BME280;42970;50.996;3.706;2022-10-31T01:41:33;77328.78;;;-146.65;100.00
57094;BME280;42970;50.996;3.706;2022-10-31T01:49:33;77320.69;;;-146.65;100.00
57094;BME280;42970;50.996;3.706;2022-10-31T01:52:24;77304.56;;;-146.65;100.00
57094;BME280;42970;50.996;3.706;2022-10-31T01:54:59;77314.66;;;-146.65;100.00
57094;BME280;42970;50.996;3.706;2022-10-31T01:57:27;77318.69;;;-146.65;100.00
57094;BME280;42970;50.996;3.706;2022-10-31T01:59:57;77320.69;;;-146.65;100.00
57094;BME280;42970;50.996;3.706;2022-10-31T02:02:25;77318.69;;;-146.65;100.00
57094;BME280;42970;50.996;3.706;2022-10-31T02:04:51;77322.72;;;-146.65;100.00
57094;BME280;42970;50.996;3.706;2022-10-31T02:07:27;77312.63;;;-146.65;100.00
57094;BME280;42970;50.996;3.706;2022-10-31T02:09:56;77322.72;;;-146.65;100.00
57094;BME280;42970;50.996;3.706;2022-10-31T02:12:22;77328.78;;;-146.65;100.00
57094;BME280;42970;50.996;3.706;2022-10-31T02:14:47;77334.81;;;-146.65;100.00
57094;BME280;42970;50.996;3.706;2022-10-31T02:17:13;77348.94;;;-146.65;100.00
57094;BME280;42970;50.996;3.706;2022-10-31T02:22:21;77340.88;;;-146.65;100.00
57094;BME280;42970;50.996;3.706;2022-10-31T02:27:51;77336.84;;;-146.65;100.00
57094;BME280;42970;50.996;3.706;2022-10-31T02:30:23;77322.72;;;-146.65;100.00
57094;BME280;42970;50.996;3.706;2022-10-31T02:32:58;77320.69;;;-146.65;100.00
57094;BME280;42970;50.996;3.706;2022-10-31T02:41:33;77328.78;;;-146.65;100.00
57094;BME280;42970;50.996;3.706;2022-10-31T02:44:12;77332.81;;;-146.65;100.00
57094;BME280;42970;50.996;3.706;2022-10-31T02:46:48;77330.78;;;-146.65;100.00
57094;BME280;42970;50.996;3.706;2022-10-31T02:49:59;77340.88;;;-146.65;100.00
57094;BME280;42970;50.996;3.706;2022-10-31T02:52:28;77344.91;;;-146.65;100.00
57094;BME280;42970;50.996;3.706;2022-10-31T02:54:54;77344.91;;;-146.65;100.00
57094;BME280;42970;50.996;3.706;2022-10-31T02:57:30;77336.84;;;-146.65;100.00
57094;BME280;42970;50.996;3.706;2022-10-31T03:00:02;77342.91;;;-146.65;100.00
57094;BME280;42970;50.996;3.706;2022-10-31T03:08:37;77344.91;;;-146.65;100.00
57094;BME280;42970;50.996;3.706;2022-10-31T03:11:07;77353.00;;;-146.65;100.00
57094;BME280;42970;50.996;3.706;2022-10-31T03:19:10;77314.66;;;-146.65;100.00
57094;BME280;42970;50.996;3.706;2022-10-31T03:24:03;77314.66;;;-146.65;100.00
57094;BME280;42970;50.996;3.706;2022-10-31T03:26:32;77310.63;;;-146.65;100.00
57094;BME280;42970;50.996;3.706;2022-10-31T03:29:03;77316.66;;;-146.65;100.00
57094;BME280;42970;50.996;3.706;2022-10-31T03:31:33;77324.75;;;-146.65;100.00
57094;BME280;42970;50.996;3.706;2022-10-31T03:34:02;77322.72;;;-146.65;100.00
57094;BME280;42970;50.996;3.706;2022-10-31T03:36:31;77320.69;;;-146.65;100.00
57094;BME280;42970;50.996;3.706;2022-10-31T03:38:58;77320.69;;;-146.65;100.00
57094;BME280;42970;50.996;3.706;2022-10-31T03:41:29;77328.78;;;-146.65;100.00
57094;BME280;42970;50.996;3.706;2022-10-31T03:44:02;77340.88;;;-146.65;100.00
57094;BME280;42970;50.996;3.706;2022-10-31T03:46:30;77342.91;;;-146.65;100.00
57094;BME280;42970;50.996;3.706;2022-10-31T03:48:55;77355.00;;;-146.65;100.00
57094;BME280;42970;50.996;3.706;2022-10-31T03:54:02;77381.25;;;-146.65;100.00
57094;BME280;42970;50.996;3.706;2022-10-31T03:56:36;77373.16;;;-146.65;100.00
57094;BME280;42970;50.996;3.706;2022-10-31T03:59:07;77385.28;;;-146.65;100.00
57094;BME280;42970;50.996;3.706;2022-10-31T04:01:38;77387.28;;;-146.65;100.00
57094;BME280;42970;50.996;3.706;2022-10-31T04:04:06;77389.31;;;-146.65;100.00
57094;BME280;42970;50.996;3.706;2022-10-31T04:06:34;77387.28;;;-146.65;100.00
57094;BME280;42970;50.996;3.706;2022-10-31T04:09:03;77373.16;;;-146.65;100.00
57094;BME280;42970;50.996;3.706;2022-10-31T04:11:34;77377.22;;;-146.65;100.00
57094;BME280;42970;50.996;3.706;2022-10-31T04:14:02;77365.09;;;-146.65;100.00
57094;BME280;42970;50.996;3.706;2022-10-31T04:16:29;77332.81;;;-146.65;100.00
57094;BME280;42970;50.996;3.706;2022-10-31T04:18:55;77316.66;;;-146.65;100.00
57094;BME280;42970;50.996;3.706;2022-10-31T04:21:27;77318.69;;;-146.65;100.00
57094;BME280;42970;50.996;3.706;2022-10-31T04:23:53;77322.72;;;-146.65;100.00
57094;BME280;42970;50.996;3.706;2022-10-31T04:26:19;77324.75;;;-146.65;100.00
57094;BME280;42970;50.996;3.706;2022-10-31T04:28:45;77308.59;;;-146.65;100.00
57094;BME280;42970;50.996;3.706;2022-10-31T04:31:13;77314.66;;;-146.65;100.00
57094;BME280;42970;50.996;3.706;2022-10-31T04:33:39;77320.69;;;-146.65;100.00
57094;BME280;42970;50.996;3.706;2022-10-31T04:36:04;77328.78;;;-146.65;100.00
57094;BME280;42970;50.996;3.706;2022-10-31T04:38:30;77353.00;;;-146.65;100.00
57094;BME280;42970;50.996;3.706;2022-10-31T04:40:56;77383.25;;;-146.65;100.00
57094;BME280;42970;50.996;3.706;2022-10-31T04:43:21;77397.38;;;-146.65;100.00
57094;BME280;42970;50.996;3.706;2022-10-31T04:45:47;77397.38;;;-146.65;100.00
57094;BME280;42970;50.996;3.706;2022-10-31T04:48:13;77391.34;;;-146.65;100.00
57094;BME280;42970;50.996;3.706;2022-10-31T04:50:38;77389.31;;;-146.65;100.00
57094;BME280;42970;50.996;3.706;2022-10-31T04:53:03;77389.31;;;-146.65;100.00
57094;BME280;42970;50.996;3.706;2022-10-31T04:55:29;77387.28;;;-146.65;100.00
57094;BME280;42970;50.996;3.706;2022-10-31T04:57:54;77393.34;;;-146.65;100.00
57094;BME280;42970;50.996;3.706;2022-10-31T05:00:21;77399.41;;;-146.65;100.00
57094;BME280;42970;50.996;3.706;2022-10-31T05:02:52;77405.47;;;-146.65;100.00
57094;BME280;42970;50.996;3.706;2022-10-31T05:05:20;77419.59;;;-146.65;100.00
57094;BME280;42970;50.996;3.706;2022-10-31T05:07:47;77429.66;;;-146.65;100.00
57094;BME280;42970;50.996;3.706;2022-10-31T05:10:15;77429.66;;;-146.65;100.00
57094;BME280;42970;50.996;3.706;2022-10-31T05:12:49;77433.72;;;-146.65;100.00
57094;BME280;42970;50.996;3.706;2022-10-31T05:15:16;77441.78;;;-146.65;100.00
57094;BME280;42970;50.996;3.706;2022-10-31T05:17:41;77441.78;;;-146.65;100.00
57094;BME280;42970;50.996;3.706;2022-10-31T05:20:07;77439.75;;;-146.65;100.00
57094;BME280;42970;50.996;3.706;2022-10-31T05:22:33;77433.72;;;-146.65;100.00
57094;BME280;42970;50.996;3.706;2022-10-31T05:24:58;77429.66;;;-146.65;100.00
57094;BME280;42970;50.996;3.706;2022-10-31T05:27:23;77419.59;;;-146.65;100.00
57094;BME280;42970;50.996;3.706;2022-10-31T05:29:49;77429.66;;;-146.65;100.00
57094;BME280;42970;50.996;3.706;2022-10-31T05:32:14;77419.59;;;-146.65;100.00
57094;BME280;42970;50.996;3.706;2022-10-31T05:34:40;77423.63;;;-146.65;100.00
57094;BME280;42970;50.996;3.706;2022-10-31T05:37:05;77423.63;;;-146.65;100.00
57094;BME280;42970;50.996;3.706;2022-10-31T05:39:30;77429.66;;;-146.65;100.00
57094;BME280;42970;50.996;3.706;2022-10-31T05:41:56;77427.66;;;-146.65;100.00
57094;BME280;42970;50.996;3.706;2022-10-31T05:44:21;77429.66;;;-146.65;100.00
57094;BME280;42970;50.996;3.706;2022-10-31T05:46:47;77423.63;;;-146.65;100.00
57094;BME280;42970;50.996;3.706;2022-10-31T05:49:13;77431.69;;;-146.65;100.00
57094;BME280;42970;50.996;3.706;2022-10-31T05:51:38;77429.66;;;-146.65;100.00
57094;BME280;42970;50.996;3.706;2022-10-31T05:54:03;77407.47;;;-146.65;100.00
57094;BME280;42970;50.996;3.706;2022-10-31T05:56:30;77401.41;;;-146.65;100.00
57094;BME280;42970;50.996;3.706;2022-10-31T05:58:55;77397.38;;;-146.65;100.00
57094;BME280;42970;50.996;3.706;2022-10-31T06:01:20;77361.06;;;-146.65;100.00
57094;BME280;42970;50.996;3.706;2022-10-31T06:03:45;77353.00;;;-146.65;100.00
57094;BME280;42970;50.996;3.706;2022-10-31T06:06:11;77348.94;;;-146.65;100.00
57094;BME280;42970;50.996;3.706;2022-10-31T06:08:41;77332.81;;;-146.65;100.00
57094;BME280;42970;50.996;3.706;2022-10-31T06:11:06;77322.72;;;-146.65;100.00
57094;BME280;42970;50.996;3.706;2022-10-31T06:13:31;77308.59;;;-146.65;100.00
57094;BME280;42970;50.996;3.706;2022-10-31T06:15:56;77286.41;;;-146.65;100.00
57094;BME280;42970;50.996;3.706;2022-10-31T06:18:22;77284.38;;;-146.65;100.00
57094;BME280;42970;50.996;3.706;2022-10-31T06:20:47;77272.28;;;-146.65;100.00
57094;BME280;42970;50.996;3.706;2022-10-31T06:23:13;77268.25;;;-146.65;100.00
57094;BME280;42970;50.996;3.706;2022-10-31T06:25:38;77266.22;;;-146.65;100.00
57094;BME280;42970;50.996;3.706;2022-10-31T06:28:04;77272.28;;;-146.65;100.00
57094;BME280;42970;50.996;3.706;2022-10-31T06:30:29;77266.22;;;-146.65;100.00
57094;BME280;42970;50.996;3.706;2022-10-31T06:33:01;77262.19;;;-146.65;100.00
57094;BME280;42970;50.996;3.706;2022-10-31T06:35:26;77250.06;;;-146.65;100.00
57094;BME280;42970;50.996;3.706;2022-10-31T06:37:55;77240.00;;;-146.65;100.00
57094;BME280;42970;50.996;3.706;2022-10-31T06:40:21;77217.78;;;-146.65;100.00
57094;BME280;42970;50.996;3.706;2022-10-31T06:42:47;77219.81;;;-146.65;100.00
57094;BME280;42970;50.996;3.706;2022-10-31T06:45:12;77203.66;;;-146.65;100.00
57094;BME280;42970;50.996;3.706;2022-10-31T06:47:38;77197.59;;;-146.65;100.00
57094;BME280;42970;50.996;3.706;2022-10-31T06:50:04;77191.56;;;-146.65;100.00
57094;BME280;42970;50.996;3.706;2022-10-31T06:52:29;77191.56;;;-146.65;100.00
57094;BME280;42970;50.996;3.706;2022-10-31T06:54:55;77193.56;;;-146.65;100.00
57094;BME280;42970;50.996;3.706;2022-10-31T06:57:20;77189.53;;;-146.65;100.00
57094;BME280;42970;50.996;3.706;2022-10-31T06:59:46;77201.66;;;-146.65;100.00
57094;BME280;42970;50.996;3.706;2022-10-31T07:02:11;77203.66;;;-146.65;100.00
57094;BME280;42970;50.996;3.706;2022-10-31T07:04:36;77195.59;;;-146.65;100.00
57094;BME280;42970;50.996;3.706;2022-10-31T07:07:02;77185.50;;;-146.65;100.00
57094;BME280;42970;50.996;3.706;2022-10-31T07:09:27;77175.41;;;-146.65;100.00
57094;BME280;42970;50.996;3.706;2022-10-31T07:11:53;77155.22;;;-146.65;100.00
57094;BME280;42970;50.996;3.706;2022-10-31T07:14:18;77141.09;;;-146.65;100.00
57094;BME280;42970;50.996;3.706;2022-10-31T07:16:48;77126.97;;;-146.65;100.00
57094;BME280;42970;50.996;3.706;2022-10-31T07:19:14;77124.97;;;-146.65;100.00
57094;BME280;42970;50.996;3.706;2022-10-31T07:21:39;77110.84;;;-146.65;100.00
57094;BME280;42970;50.996;3.706;2022-10-31T07:24:05;77102.78;;;-146.65;100.00
57094;BME280;42970;50.996;3.706;2022-10-31T07:26:31;77090.66;;;-146.65;100.00
57094;BME280;42970;50.996;3.706;2022-10-31T07:28:56;77086.63;;;-146.65;100.00
57094;BME280;42970;50.996;3.706;2022-10-31T07:31:21;77086.63;;;-146.65;100.00
57094;BME280;42970;50.996;3.706;2022-10-31T07:33:46;77086.63;;;-146.65;100.00
57094;BME280;42970;50.996;3.706;2022-10-31T07:36:12;77070.50;;;-146.65;100.00
57094;BME280;42970;50.996;3.706;2022-10-31T07:38:37;77058.38;;;-146.65;100.00
57094;BME280;42970;50.996;3.706;2022-10-31T07:41:03;77046.28;;;-146.65;100.00
57094;BME280;42970;50.996;3.706;2022-10-31T07:43:28;77040.22;;;-146.65;100.00
57094;BME280;42970;50.996;3.706;2022-10-31T07:45:54;77040.22;;;-146.65;100.00
57094;BME280;42970;50.996;3.706;2022-10-31T07:48:19;77034.16;;;-146.65;100.00
57094;BME280;42970;50.996;3.706;2022-10-31T07:50:45;77026.09;;;-146.65;100.00
57094;BME280;42970;50.996;3.706;2022-10-31T07:53:12;77022.06;;;-146.65;100.00
57094;BME280;42970;50.996;3.706;2022-10-31T07:55:38;77028.13;;;-146.65;100.00
57094;BME280;42970;50.996;3.706;2022-10-31T08:00:32;77007.94;;;-146.65;100.00
57094;BME280;42970;50.996;3.706;2022-10-31T08:05:28;76991.78;;;-146.65;100.00
57094;BME280;42970;50.996;3.706;2022-10-31T08:07:54;76991.78;;;-146.65;100.00
57094;BME280;42970;50.996;3.706;2022-10-31T08:10:20;76977.66;;;-146.65;100.00
57094;BME280;42970;50.996;3.706;2022-10-31T08:12:45;76967.59;;;-146.65;100.00
57094;BME280;42970;50.996;3.706;2022-10-31T08:15:11;76959.50;;;-146.65;100.00
57094;BME280;42970;50.996;3.706;2022-10-31T08:17:37;76963.53;;;-146.65;100.00
57094;BME280;42970;50.996;3.706;2022-10-31T08:20:03;76953.47;;;-146.65;100.00
57094;BME280;42970;50.996;3.706;2022-10-31T08:22:29;76951.44;;;-146.65;100.00
57094;BME280;42970;50.996;3.706;2022-10-31T08:24:54;76945.38;;;-146.65;100.00
57094;BME280;42970;50.996;3.706;2022-10-31T08:27:20;76943.38;;;-146.65;100.00
57094;BME280;42970;50.996;3.706;2022-10-31T08:29:45;76929.25;;;-146.65;100.00
57094;BME280;42970;50.996;3.706;2022-10-31T08:32:11;76909.06;;;-146.65;100.00
57094;BME280;42970;50.996;3.706;2022-10-31T08:34:36;76884.84;;;-146.65;100.00
57094;BME280;42970;50.996;3.706;2022-10-31T08:37:02;76876.78;;;-146.65;100.00
57094;BME280;42970;50.996;3.706;2022-10-31T08:39:27;76860.63;;;-146.65;100.00
57094;BME280;42970;50.996;3.706;2022-10-31T08:41:52;76846.50;;;-146.65;100.00
57094;BME280;42970;50.996;3.706;2022-10-31T08:44:18;76840.47;;;-146.65;100.00
57094;BME280;42970;50.996;3.706;2022-10-31T08:46:43;76830.38;;;-146.65;100.00
57094;BME280;42970;50.996;3.706;2022-10-31T08:49:09;76808.19;;;-146.65;100.00
57094;BME280;42970;50.996;3.706;2022-10-31T08:51:34;76788.00;;;-146.65;100.00
57094;BME280;42970;50.996;3.706;2022-10-31T08:53:59;76790.03;;;-146.65;100.00
57094;BME280;42970;50.996;3.706;2022-10-31T08:56:25;76775.91;;;-146.65;100.00
57094;BME280;42970;50.996;3.706;2022-10-31T08:58:52;76771.88;;;-146.65;100.00
57094;BME280;42970;50.996;3.706;2022-10-31T09:01:17;76775.91;;;-146.65;100.00
57094;BME280;42970;50.996;3.706;2022-10-31T09:03:42;76775.91;;;-146.65;100.00
57094;BME280;42970;50.996;3.706;2022-10-31T09:06:07;76783.97;;;-146.65;100.00
57094;BME280;42970;50.996;3.706;2022-10-31T09:08:35;76786.00;;;-146.65;100.00
57094;BME280;42970;50.996;3.706;2022-10-31T09:11:01;76779.94;;;-146.65;100.00
57094;BME280;42970;50.996;3.706;2022-10-31T09:13:26;76767.81;;;-146.65;100.00
57094;BME280;42970;50.996;3.706;2022-10-31T09:15:52;76759.75;;;-146.65;100.00
57094;BME280;42970;50.996;3.706;2022-10-31T09:18:21;76755.72;;;-146.65;100.00
57094;BME280;42970;50.996;3.706;2022-10-31T09:20:48;76753.69;;;-146.65;100.00
57094;BME280;42970;50.996;3.706;2022-10-31T09:23:18;76737.56;;;-146.65;100.00
57094;BME280;42970;50.996;3.706;2022-10-31T09:25:44;76735.53;;;-146.65;100.00
57094;BME280;42970;50.996;3.706;2022-10-31T09:28:11;76727.47;;;-146.65;100.00
57094;BME280;42970;50.996;3.706;2022-10-31T09:30:36;76719.41;;;-146.65;100.00
57094;BME280;42970;50.996;3.706;2022-10-31T09:33:04;76739.56;;;-146.65;100.00
57094;BME280;42970;50.996;3.706;2022-10-31T09:35:30;76755.72;;;-146.65;100.00
57094;BME280;42970;50.996;3.706;2022-10-31T09:38:02;76761.78;;;-146.65;100.00
57094;BME280;42970;50.996;3.706;2022-10-31T09:45:53;76681.06;;;-146.65;100.00
57094;BME280;42970;50.996;3.706;2022-10-31T09:48:43;76662.91;;;-146.65;100.00
57094;BME280;42970;50.996;3.706;2022-10-31T09:51:18;76642.72;;;-146.65;100.00
57094;BME280;42970;50.996;3.706;2022-10-31T09:53:50;76624.56;;;-146.65;100.00
57094;BME280;42970;50.996;3.706;2022-10-31T09:56:19;76602.38;;;-146.65;100.00
57094;BME280;42970;50.996;3.706;2022-10-31T09:58:46;76588.25;;;-146.65;100.00
57094;BME280;42970;50.996;3.706;2022-10-31T10:01:29;76584.22;;;-146.65;100.00
57094;BME280;42970;50.996;3.706;2022-10-31T10:03:57;76560.00;;;-146.65;100.00
57094;BME280;42970;50.996;3.706;2022-10-31T10:06:25;76566.06;;;-146.65;100.00
57094;BME280;42970;50.996;3.706;2022-10-31T10:08:52;76578.16;;;-146.65;100.00
57094;BME280;42970;50.996;3.706;2022-10-31T10:22:12;76509.56;;;-146.65;100.00
57094;BME280;42970;50.996;3.706;2022-10-31T10:30:22;76463.16;;;-146.65;100.00
57094;BME280;42970;50.996;3.706;2022-10-31T10:32:51;76394.56;;;-146.65;98.65
57094;BME280;42970;50.996;3.706;2022-10-31T10:35:24;76350.19;;;-146.65;95.70
57094;BME280;42970;50.996;3.706;2022-10-31T10:40:50;76356.25;;;-146.65;94.51
57094;BME280;42970;50.996;3.706;2022-10-31T10:45:50;76352.22;;;-146.65;94.16
57094;BME280;42970;50.996;3.706;2022-10-31T10:51:28;76350.19;;;-146.65;93.95
57094;BME280;42970;50.996;3.706;2022-10-31T10:54:02;76319.94;;;-146.65;94.45
57094;BME280;42970;50.996;3.706;2022-10-31T10:59:09;76321.94;;;-146.65;95.17
57094;BME280;42970;50.996;3.706;2022-10-31T11:01:35;76283.63;;;-146.65;94.47
57094;BME280;42970;50.996;3.706;2022-10-31T11:04:02;76313.88;;;-146.65;94.77
57094;BME280;42970;50.996;3.706;2022-10-31T11:06:27;76295.72;;;-146.65;95.04
57094;BME280;42970;50.996;3.706;2022-10-31T11:08:53;76295.72;;;-146.65;93.97
57094;BME280;42970;50.996;3.706;2022-10-31T11:11:30;76287.66;;;-146.65;94.07
57094;BME280;42970;50.996;3.706;2022-10-31T11:14:02;76283.63;;;-146.65;93.47
57094;BME280;42970;50.996;3.706;2022-10-31T11:16:42;76285.63;;;-146.65;93.72
57094;BME280;42970;50.996;3.706;2022-10-31T11:19:12;76283.63;;;-146.65;94.51
57094;BME280;42970;50.996;3.706;2022-10-31T11:21:41;76261.44;;;-146.65;93.89
57094;BME280;42970;50.996;3.706;2022-10-31T11:26:36;76235.19;;;-146.65;92.22
57094;BME280;42970;50.996;3.706;2022-10-31T11:29:03;76227.13;;;-146.65;91.88
57094;BME280;42970;50.996;3.706;2022-10-31T11:31:29;76223.09;;;-146.65;92.57
57094;BME280;42970;50.996;3.706;2022-10-31T11:33:57;76217.03;;;-146.65;92.12
57094;BME280;42970;50.996;3.706;2022-10-31T11:36:25;76227.13;;;-146.65;91.63
57094;BME280;42970;50.996;3.706;2022-10-31T11:38:52;76202.91;;;-146.65;91.92
57094;BME280;42970;50.996;3.706;2022-10-31T11:41:23;76188.78;;;-146.65;91.74
57094;BME280;42970;50.996;3.706;2022-10-31T11:43:50;76178.72;;;-146.65;91.67
57094;BME280;42970;50.996;3.706;2022-10-31T11:46:21;76184.75;;;-146.65;91.82
57094;BME280;42970;50.996;3.706;2022-10-31T11:48:48;76180.72;;;-146.65;91.60
57094;BME280;42970;50.996;3.706;2022-10-31T11:51:19;76182.75;;;-146.65;91.90
57094;BME280;42970;50.996;3.706;2022-10-31T11:53:50;76170.66;;;-146.65;92.47
57094;BME280;42970;50.996;3.706;2022-10-31T11:56:16;76156.53;;;-146.65;92.19
57094;BME280;42970;50.996;3.706;2022-10-31T11:58:41;76156.53;;;-146.65;91.79
57094;BME280;42970;50.996;3.706;2022-10-31T12:01:20;76144.41;;;-146.65;91.73
57094;BME280;42970;50.996;3.706;2022-10-31T12:03:51;76136.34;;;-146.65;91.87
57094;BME280;42970;50.996;3.706;2022-10-31T12:08:48;76085.91;;;-146.65;91.39
57094;BME280;42970;50.996;3.706;2022-10-31T12:11:24;76089.94;;;-146.65;91.41
57094;BME280;42970;50.996;3.706;2022-10-31T12:16:46;76061.72;;;-146.65;91.02
57094;BME280;42970;50.996;3.706;2022-10-31T12:34:00;76051.63;;;-146.65;91.26
57094;BME280;42970;50.996;3.706;2022-10-31T12:41:43;76061.72;;;-146.65;91.84
57094;BME280;42970;50.996;3.706;2022-10-31T12:44:15;76065.75;;;-146.65;92.05
57094;BME280;42970;50.996;3.706;2022-10-31T12:54:33;76045.56;;;-146.65;92.68
57094;BME280;42970;50.996;3.706;2022-10-31T12:59:41;76037.50;;;-146.65;92.62
57094;BME280;42970;50.996;3.706;2022-10-31T13:04:45;76005.22;;;-146.65;92.21
57094;BME280;42970;50.996;3.706;2022-10-31T13:07:20;75997.16;;;-146.65;91.92
57094;BME280;42970;50.996;3.706;2022-10-31T13:09:50;75972.94;;;-146.65;91.17
57094;BME280;42970;50.996;3.706;2022-10-31T13:12:18;75928.56;;;-146.65;90.16
57094;BME280;42970;50.996;3.706;2022-10-31T13:14:49;75946.72;;;-146.65;90.16
57094;BME280;42970;50.996;3.706;2022-10-31T13:17:20;75920.50;;;-146.65;89.91
57094;BME280;42970;50.996;3.706;2022-10-31T13:19:47;75938.66;;;-146.65;89.63
57094;BME280;42970;50.996;3.706;2022-10-31T13:22:20;75906.38;;;-146.65;89.88
57094;BME280;42970;50.996;3.706;2022-10-31T13:27:54;75896.28;;;-146.65;89.94
57094;BME280;42970;50.996;3.706;2022-10-31T13:30:25;75876.13;;;-146.65;90.12
57094;BME280;42970;50.996;3.706;2022-10-31T13:38:09;75829.72;;;-146.65;89.31
57094;BME280;42970;50.996;3.706;2022-10-31T13:45:48;75787.38;;;-146.65;87.57
57094;BME280;42970;50.996;3.706;2022-10-31T13:50:39;75740.97;;;-146.65;87.18
57094;BME280;42970;50.996;3.706;2022-10-31T13:53:21;75751.06;;;-146.65;87.22
57094;BME280;42970;50.996;3.706;2022-10-31T13:55:48;75765.16;;;-146.65;86.90
57094;BME280;42970;50.996;3.706;2022-10-31T13:58:24;75763.16;;;-146.65;87.47
57094;BME280;42970;50.996;3.706;2022-10-31T14:01:12;75775.25;;;-146.65;88.10
57094;BME280;42970;50.996;3.706;2022-10-31T14:03:40;75777.28;;;-146.65;88.98
57094;BME280;42970;50.996;3.706;2022-10-31T14:06:07;75783.31;;;-146.65;89.18
57094;BME280;42970;50.996;3.706;2022-10-31T14:08:34;75809.56;;;-146.65;89.81
57094;BME280;42970;50.996;3.706;2022-10-31T14:11:00;75807.53;;;-146.65;90.36
57094;BME280;42970;50.996;3.706;2022-10-31T14:15:59;75815.59;;;-146.65;91.26
57094;BME280;42970;50.996;3.706;2022-10-31T14:18:29;75787.38;;;-146.65;90.80
57094;BME280;42970;50.996;3.706;2022-10-31T14:20:55;75777.28;;;-146.65;90.66
57094;BME280;42970;50.996;3.706;2022-10-31T14:23:39;75775.25;;;-146.65;90.59
57094;BME280;42970;50.996;3.706;2022-10-31T14:28:54;75755.09;;;-146.65;90.63
57094;BME280;42970;50.996;3.706;2022-10-31T14:33:54;75738.94;;;-146.65;90.74
57094;BME280;42970;50.996;3.706;2022-10-31T14:36:36;75738.94;;;-146.65;91.24
57094;BME280;42970;50.996;3.706;2022-10-31T14:41:45;75734.91;;;-146.65;91.84
57094;BME280;42970;50.996;3.706;2022-10-31T14:46:45;75745.00;;;-146.65;91.66
57094;BME280;42970;50.996;3.706;2022-10-31T14:51:43;75747.03;;;-146.65;92.07
57094;BME280;42970;50.996;3.706;2022-10-31T14:54:17;75751.06;;;-146.65;92.47
57094;BME280;42970;50.996;3.706;2022-10-31T14:56:49;75759.13;;;-146.65;92.96
57094;BME280;42970;50.996;3.706;2022-10-31T14:59:20;75757.09;;;-146.65;93.41
57094;BME280;42970;50.996;3.706;2022-10-31T15:01:55;75759.13;;;-146.65;93.25